sensor_id;sensor_type;location;lat;lon;timestamp;P1;durP1;ratioP1;P2;durP2;ratioP2
20649;SDS011;10484;48.736;9.332;2024-03-23T00:52:45;6.20;;;5.60;;
20649;SDS011;10484;48.736;9.332;2024-03-23T00:55:11;7.07;;;5.50;;
20649;SDS011;10484;48.736;9.332;2024-03-23T00:57:37;7.13;;;4.63;;
20649;SDS011;10484;48.736;9.332;2024-03-23T01:00:02;5.97;;;5.37;;
20649;SDS011;10484;48.736;9.332;2024-03-23T01:02:30;6.10;;;5.47;;
20649;SDS011;10484;48.736;9.332;2024-03-23T01:04:56;7.80;;;5.43;;
20649;SDS011;10484;48.736;9.332;2024-03-23T01:07:22;7.97;;;6.03;;
20649;SDS011;10484;48.736;9.332;2024-03-23T01:09:48;6.20;;;5.43;;
20649;SDS011;10484;48.736;9.332;2024-03-23T01:12:13;5.67;;;5.13;;
20649;SDS011;10484;48.736;9.332;2024-03-23T01:14:39;4.90;;;4.40;;
20649;SDS011;10484;48.736;9.332;2024-03-23T01:17:04;6.20;;;5.10;;
20649;SDS011;10484;48.736;9.332;2024-03-23T01:19:30;7.10;;;5.53;;
20649;SDS011;10484;48.736;9.332;2024-03-23T01:21:55;5.80;;;5.30;;
20649;SDS011;10484;48.736;9.332;2024-03-23T01:24:21;7.00;;;5.50;;
20649;SDS011;10484;48.736;9.332;2024-03-23T01:26:46;8.57;;;5.20;;
20649;SDS011;10484;48.736;9.332;2024-03-23T01:29:12;6.37;;;5.00;;
20649;SDS011;10484;48.736;9.332;2024-03-23T01:31:37;7.67;;;5.27;;
20649;SDS011;10484;48.736;9.332;2024-03-23T01:34:03;6.50;;;5.90;;
20649;SDS011;10484;48.736;9.332;2024-03-23T01:36:28;6.00;;;5.00;;
20649;SDS011;10484;48.736;9.332;2024-03-23T01:38:54;5.87;;;5.30;;
20649;SDS011;10484;48.736;9.332;2024-03-23T01:41:20;8.13;;;5.47;;
20649;SDS011;10484;48.736;9.332;2024-03-23T01:43:45;5.20;;;4.80;;
20649;SDS011;10484;48.736;9.332;2024-03-23T01:46:12;8.33;;;5.40;;
20649;SDS011;10484;48.736;9.332;2024-03-23T01:48:38;5.63;;;5.03;;
20649;SDS011;10484;48.736;9.332;2024-03-23T01:51:03;7.10;;;5.27;;
20649;SDS011;10484;48.736;9.332;2024-03-23T01:53:30;5.50;;;5.00;;
20649;SDS011;10484;48.736;9.332;2024-03-23T01:55:56;6.57;;;4.97;;
20649;SDS011;10484;48.736;9.332;2024-03-23T01:58:22;6.40;;;5.30;;
20649;SDS011;10484;48.736;9.332;2024-03-23T02:00:48;6.47;;;4.83;;
20649;SDS011;10484;48.736;9.332;2024-03-23T02:03:26;6.30;;;4.93;;
20649;SDS011;10484;48.736;9.332;2024-03-23T02:05:53;5.37;;;4.87;;
20649;SDS011;10484;48.736;9.332;2024-03-23T02:08:20;5.23;;;4.73;;
20649;SDS011;10484;48.736;9.332;2024-03-23T02:10:47;6.10;;;4.70;;
20649;SDS011;10484;48.736;9.332;2024-03-23T02:13:14;5.73;;;4.60;;
20649;SDS011;10484;48.736;9.332;2024-03-23T02:15:41;5.97;;;5.20;;
20649;SDS011;10484;48.736;9.332;2024-03-23T02:18:07;5.60;;;5.10;;
20649;SDS011;10484;48.736;9.332;2024-03-23T02:20:36;4.83;;;4.40;;
20649;SDS011;10484;48.736;9.332;2024-03-23T02:23:02;5.63;;;5.07;;
20649;SDS011;10484;48.736;9.332;2024-03-23T02:25:30;5.30;;;4.80;;
20649;SDS011;10484;48.736;9.332;2024-03-23T02:27:57;5.40;;;4.90;;
20649;SDS011;10484;48.736;9.332;2024-03-23T02:30:23;5.47;;;4.97;;
20649;SDS011;10484;48.736;9.332;2024-03-23T02:32:50;5.63;;;4.67;;
20649;SDS011;10484;48.736;9.332;2024-03-23T02:35:15;5.20;;;4.70;;
20649;SDS011;10484;48.736;9.332;2024-03-23T02:37:41;5.93;;;5.30;;
20649;SDS011;10484;48.736;9.332;2024-03-23T02:40:07;6.93;;;5.17;;
20649;SDS011;10484;48.736;9.332;2024-03-23T02:42:32;5.67;;;4.87;;
20649;SDS011;10484;48.736;9.332;2024-03-23T02:44:58;5.20;;;4.73;;
20649;SDS011;10484;48.736;9.332;2024-03-23T02:47:24;5.77;;;4.80;;
20649;SDS011;10484;48.736;9.332;2024-03-23T02:49:50;6.50;;;5.60;;
20649;SDS011;10484;48.736;9.332;2024-03-23T02:52:15;5.27;;;4.53;;
20649;SDS011;10484;48.736;9.332;2024-03-23T02:54:41;5.43;;;4.70;;
20649;SDS011;10484;48.736;9.332;2024-03-23T02:57:09;5.57;;;5.10;;
20649;SDS011;10484;48.736;9.332;2024-03-23T02:59:35;5.47;;;4.97;;
20649;SDS011;10484;48.736;9.332;2024-03-23T03:02:01;5.47;;;4.80;;
20649;SDS011;10484;48.736;9.332;2024-03-23T03:04:26;6.73;;;4.40;;
20649;SDS011;10484;48.736;9.332;2024-03-23T03:06:52;5.10;;;4.60;;
20649;SDS011;10484;48.736;9.332;2024-03-23T03:09:17;5.70;;;5.20;;
20649;SDS011;10484;48.736;9.332;2024-03-23T03:11:43;5.63;;;5.00;;
20649;SDS011;10484;48.736;9.332;2024-03-23T03:14:08;5.37;;;4.90;;
20649;SDS011;10484;48.736;9.332;2024-03-23T03:16:34;5.80;;;5.20;;
20649;SDS011;10484;48.736;9.332;2024-03-23T03:19:00;5.00;;;4.60;;
20649;SDS011;10484;48.736;9.332;2024-03-23T03:21:26;4.80;;;4.30;;
20649;SDS011;10484;48.736;9.332;2024-03-23T03:23:52;5.73;;;5.17;;
20649;SDS011;10484;48.736;9.332;2024-03-23T03:26:17;5.03;;;4.63;;
20649;SDS011;10484;48.736;9.332;2024-03-23T03:28:43;5.07;;;4.57;;
20649;SDS011;10484;48.736;9.332;2024-03-23T03:31:13;5.33;;;4.83;;
20649;SDS011;10484;48.736;9.332;2024-03-23T03:33:41;4.80;;;4.40;;
20649;SDS011;10484;48.736;9.332;2024-03-23T03:36:07;6.73;;;4.87;;
20649;SDS011;10484;48.736;9.332;2024-03-23T03:38:33;5.10;;;4.60;;
20649;SDS011;10484;48.736;9.332;2024-03-23T03:41:02;4.90;;;4.17;;
20649;SDS011;10484;48.736;9.332;2024-03-23T03:43:28;4.80;;;4.40;;
20649;SDS011;10484;48.736;9.332;2024-03-23T03:45:54;5.93;;;4.63;;
20649;SDS011;10484;48.736;9.332;2024-03-23T03:48:21;6.03;;;4.40;;
20649;SDS011;10484;48.736;9.332;2024-03-23T03:50:47;5.13;;;4.63;;
20649;SDS011;10484;48.736;9.332;2024-03-23T03:53:12;6.00;;;4.50;;
20649;SDS011;10484;48.736;9.332;2024-03-23T03:55:38;6.77;;;5.10;;
20649;SDS011;10484;48.736;9.332;2024-03-23T03:58:03;5.60;;;4.53;;
20649;SDS011;10484;48.736;9.332;2024-03-23T04:00:29;5.63;;;4.63;;
20649;SDS011;10484;48.736;9.332;2024-03-23T04:02:55;5.03;;;4.53;;
20649;SDS011;10484;48.736;9.332;2024-03-23T04:05:21;6.23;;;4.30;;
20649;SDS011;10484;48.736;9.332;2024-03-23T04:07:47;4.83;;;4.33;;
20649;SDS011;10484;48.736;9.332;2024-03-23T04:10:13;9.83;;;5.60;;
20649;SDS011;10484;48.736;9.332;2024-03-23T04:12:38;5.33;;;4.60;;
20649;SDS011;10484;48.736;9.332;2024-03-23T04:15:04;4.87;;;4.23;;
20649;SDS011;10484;48.736;9.332;2024-03-23T04:17:30;6.13;;;4.57;;
20649;SDS011;10484;48.736;9.332;2024-03-23T04:19:58;5.50;;;4.23;;
20649;SDS011;10484;48.736;9.332;2024-03-23T04:22:23;5.23;;;4.30;;
20649;SDS011;10484;48.736;9.332;2024-03-23T04:24:51;4.33;;;3.90;;
20649;SDS011;10484;48.736;9.332;2024-03-23T04:27:20;5.63;;;4.67;;
20649;SDS011;10484;48.736;9.332;2024-03-23T04:29:49;5.13;;;4.50;;
20649;SDS011;10484;48.736;9.332;2024-03-23T04:32:15;5.23;;;4.70;;
20649;SDS011;10484;48.736;9.332;2024-03-23T04:34:41;6.00;;;5.40;;
20649;SDS011;10484;48.736;9.332;2024-03-23T04:37:08;5.73;;;5.27;;
20649;SDS011;10484;48.736;9.332;2024-03-23T04:39:35;5.20;;;4.67;;
20649;SDS011;10484;48.736;9.332;2024-03-23T04:42:01;6.53;;;5.23;;
20649;SDS011;10484;48.736;9.332;2024-03-23T04:44:28;7.20;;;5.20;;
20649;SDS011;10484;48.736;9.332;2024-03-23T04:46:53;7.00;;;5.33;;
20649;SDS011;10484;48.736;9.332;2024-03-23T04:49:19;6.13;;;5.63;;
20649;SDS011;10484;48.736;9.332;2024-03-23T04:51:45;7.40;;;5.77;;
20649;SDS011;10484;48.736;9.332;2024-03-23T04:54:14;6.67;;;5.97;;
20649;SDS011;10484;48.736;9.332;2024-03-23T04:56:40;5.80;;;5.30;;
20649;SDS011;10484;48.736;9.332;2024-03-23T04:59:07;8.10;;;5.40;;
20649;SDS011;10484;48.736;9.332;2024-03-23T05:01:32;5.07;;;4.67;;
20649;SDS011;10484;48.736;9.332;2024-03-23T05:03:58;6.63;;;5.90;;
20649;SDS011;10484;48.736;9.332;2024-03-23T05:06:24;6.83;;;6.00;;
20649;SDS011;10484;48.736;9.332;2024-03-23T05:08:50;6.97;;;6.23;;
20649;SDS011;10484;48.736;9.332;2024-03-23T05:11:16;7.77;;;7.03;;
20649;SDS011;10484;48.736;9.332;2024-03-23T05:13:42;7.93;;;7.10;;
20649;SDS011;10484;48.736;9.332;2024-03-23T05:16:07;8.73;;;7.93;;
20649;SDS011;10484;48.736;9.332;2024-03-23T05:18:33;9.30;;;8.37;;
20649;SDS011;10484;48.736;9.332;2024-03-23T05:20:59;10.53;;;9.50;;
20649;SDS011;10484;48.736;9.332;2024-03-23T05:23:25;12.43;;;10.77;;
20649;SDS011;10484;48.736;9.332;2024-03-23T05:25:52;13.23;;;11.80;;
20649;SDS011;10484;48.736;9.332;2024-03-23T05:28:18;13.43;;;12.13;;
20649;SDS011;10484;48.736;9.332;2024-03-23T05:30:49;13.40;;;12.00;;
20649;SDS011;10484;48.736;9.332;2024-03-23T05:33:21;15.80;;;14.10;;
20649;SDS011;10484;48.736;9.332;2024-03-23T05:35:49;15.43;;;13.80;;
20649;SDS011;10484;48.736;9.332;2024-03-23T05:38:21;15.23;;;13.53;;
20649;SDS011;10484;48.736;9.332;2024-03-23T05:40:57;16.77;;;14.20;;
20649;SDS011;10484;48.736;9.332;2024-03-23T05:43:24;15.50;;;13.90;;
20649;SDS011;10484;48.736;9.332;2024-03-23T05:45:54;17.83;;;15.13;;
20649;SDS011;10484;48.736;9.332;2024-03-23T05:48:23;19.50;;;17.37;;
20649;SDS011;10484;48.736;9.332;2024-03-23T05:50:49;20.50;;;17.83;;
20649;SDS011;10484;48.736;9.332;2024-03-23T05:53:15;24.37;;;18.90;;
20649;SDS011;10484;48.736;9.332;2024-03-23T05:55:41;20.37;;;16.10;;
20649;SDS011;10484;48.736;9.332;2024-03-23T05:58:07;19.07;;;16.63;;
20649;SDS011;10484;48.736;9.332;2024-03-23T06:00:33;22.13;;;17.60;;
20649;SDS011;10484;48.736;9.332;2024-03-23T06:02:59;18.90;;;16.93;;
20649;SDS011;10484;48.736;9.332;2024-03-23T06:05:24;20.97;;;17.73;;
20649;SDS011;10484;48.736;9.332;2024-03-23T06:07:50;22.30;;;19.63;;
20649;SDS011;10484;48.736;9.332;2024-03-23T06:10:16;20.90;;;18.47;;
20649;SDS011;10484;48.736;9.332;2024-03-23T06:12:41;20.60;;;18.10;;
20649;SDS011;10484;48.736;9.332;2024-03-23T06:15:07;20.80;;;14.83;;
20649;SDS011;10484;48.736;9.332;2024-03-23T06:17:35;16.70;;;13.23;;
20649;SDS011;10484;48.736;9.332;2024-03-23T06:20:01;15.03;;;12.20;;
20649;SDS011;10484;48.736;9.332;2024-03-23T06:22:27;14.03;;;11.07;;
20649;SDS011;10484;48.736;9.332;2024-03-23T06:24:53;13.80;;;11.60;;
20649;SDS011;10484;48.736;9.332;2024-03-23T06:27:18;10.03;;;8.37;;
20649;SDS011;10484;48.736;9.332;2024-03-23T06:29:44;9.30;;;8.10;;
20649;SDS011;10484;48.736;9.332;2024-03-23T06:32:09;7.37;;;6.40;;
20649;SDS011;10484;48.736;9.332;2024-03-23T06:34:35;6.63;;;5.93;;
20649;SDS011;10484;48.736;9.332;2024-03-23T06:37:00;5.87;;;5.27;;
20649;SDS011;10484;48.736;9.332;2024-03-23T06:39:27;6.83;;;5.10;;
20649;SDS011;10484;48.736;9.332;2024-03-23T06:41:53;3.97;;;3.60;;
20649;SDS011;10484;48.736;9.332;2024-03-23T06:44:19;4.90;;;3.80;;
20649;SDS011;10484;48.736;9.332;2024-03-23T06:46:45;3.57;;;2.53;;
20649;SDS011;10484;48.736;9.332;2024-03-23T06:49:11;2.77;;;2.50;;
20649;SDS011;10484;48.736;9.332;2024-03-23T06:51:36;2.47;;;2.27;;
20649;SDS011;10484;48.736;9.332;2024-03-23T06:54:03;1.80;;;1.67;;
20649;SDS011;10484;48.736;9.332;2024-03-23T06:56:29;2.27;;;1.97;;
20649;SDS011;10484;48.736;9.332;2024-03-23T06:58:55;1.57;;;1.23;;
20649;SDS011;10484;48.736;9.332;2024-03-23T07:01:21;1.03;;;0.87;;
20649;SDS011;10484;48.736;9.332;2024-03-23T07:03:47;0.93;;;0.83;;
20649;SDS011;10484;48.736;9.332;2024-03-23T07:06:12;0.90;;;0.80;;
20649;SDS011;10484;48.736;9.332;2024-03-23T07:08:38;1.20;;;0.60;;
20649;SDS011;10484;48.736;9.332;2024-03-23T07:11:03;1.00;;;0.67;;
20649;SDS011;10484;48.736;9.332;2024-03-23T07:13:29;0.80;;;0.63;;
20649;SDS011;10484;48.736;9.332;2024-03-23T07:15:55;0.83;;;0.50;;
20649;SDS011;10484;48.736;9.332;2024-03-23T07:18:21;0.43;;;0.40;;
20649;SDS011;10484;48.736;9.332;2024-03-23T07:20:56;0.97;;;0.50;;
20649;SDS011;10484;48.736;9.332;2024-03-23T07:23:22;0.50;;;0.40;;
20649;SDS011;10484;48.736;9.332;2024-03-23T07:25:58;0.90;;;0.50;;
20649;SDS011;10484;48.736;9.332;2024-03-23T07:28:24;0.40;;;0.30;;
20649;SDS011;10484;48.736;9.332;2024-03-23T07:33:35;0.60;;;0.40;;
20649;SDS011;10484;48.736;9.332;2024-03-23T07:36:02;0.57;;;0.50;;
20649;SDS011;10484;48.736;9.332;2024-03-23T07:38:28;0.93;;;0.30;;
20649;SDS011;10484;48.736;9.332;2024-03-23T07:41:07;0.50;;;0.37;;
20649;SDS011;10484;48.736;9.332;2024-03-23T07:43:34;0.60;;;0.43;;
20649;SDS011;10484;48.736;9.332;2024-03-23T07:46:00;1.00;;;0.33;;
20649;SDS011;10484;48.736;9.332;2024-03-23T07:48:28;0.50;;;0.37;;
20649;SDS011;10484;48.736;9.332;2024-03-23T07:50:57;0.50;;;0.30;;
20649;SDS011;10484;48.736;9.332;2024-03-23T07:53:26;0.40;;;0.30;;
20649;SDS011;10484;48.736;9.332;2024-03-23T07:55:56;0.60;;;0.47;;
20649;SDS011;10484;48.736;9.332;2024-03-23T07:58:23;0.40;;;0.40;;
20649;SDS011;10484;48.736;9.332;2024-03-23T08:00:49;0.40;;;0.30;;
20649;SDS011;10484;48.736;9.332;2024-03-23T08:03:15;0.50;;;0.40;;
20649;SDS011;10484;48.736;9.332;2024-03-23T08:05:40;0.50;;;0.50;;
20649;SDS011;10484;48.736;9.332;2024-03-23T08:08:06;0.40;;;0.30;;
20649;SDS011;10484;48.736;9.332;2024-03-23T08:10:32;0.43;;;0.30;;
20649;SDS011;10484;48.736;9.332;2024-03-23T08:12:57;1.37;;;0.47;;
20649;SDS011;10484;48.736;9.332;2024-03-23T08:15:23;0.50;;;0.37;;
20649;SDS011;10484;48.736;9.332;2024-03-23T08:17:49;0.80;;;0.40;;
20649;SDS011;10484;48.736;9.332;2024-03-23T08:20:15;0.50;;;0.40;;
20649;SDS011;10484;48.736;9.332;2024-03-23T08:22:40;0.70;;;0.40;;
20649;SDS011;10484;48.736;9.332;2024-03-23T08:25:06;0.70;;;0.50;;
20649;SDS011;10484;48.736;9.332;2024-03-23T08:27:31;0.50;;;0.50;;
20649;SDS011;10484;48.736;9.332;2024-03-23T08:29:58;0.60;;;0.60;;
20649;SDS011;10484;48.736;9.332;2024-03-23T08:32:23;0.70;;;0.70;;
20649;SDS011;10484;48.736;9.332;2024-03-23T08:34:49;0.83;;;0.50;;
20649;SDS011;10484;48.736;9.332;2024-03-23T08:37:15;0.83;;;0.70;;
20649;SDS011;10484;48.736;9.332;2024-03-23T08:39:42;0.50;;;0.47;;
20649;SDS011;10484;48.736;9.332;2024-03-23T08:42:08;1.00;;;0.50;;
20649;SDS011;10484;48.736;9.332;2024-03-23T08:44:34;0.60;;;0.60;;
20649;SDS011;10484;48.736;9.332;2024-03-23T08:46:59;0.53;;;0.40;;
20649;SDS011;10484;48.736;9.332;2024-03-23T08:49:26;0.80;;;0.57;;
20649;SDS011;10484;48.736;9.332;2024-03-23T08:51:51;0.70;;;0.70;;
20649;SDS011;10484;48.736;9.332;2024-03-23T08:54:17;1.40;;;0.60;;
20649;SDS011;10484;48.736;9.332;2024-03-23T08:56:45;0.60;;;0.50;;
20649;SDS011;10484;48.736;9.332;2024-03-23T08:59:11;0.70;;;0.70;;
20649;SDS011;10484;48.736;9.332;2024-03-23T09:01:36;0.80;;;0.40;;
20649;SDS011;10484;48.736;9.332;2024-03-23T09:04:03;1.07;;;0.60;;
20649;SDS011;10484;48.736;9.332;2024-03-23T09:06:29;0.80;;;0.70;;
20649;SDS011;10484;48.736;9.332;2024-03-23T09:08:55;1.10;;;0.80;;
20649;SDS011;10484;48.736;9.332;2024-03-23T09:11:20;0.77;;;0.60;;
20649;SDS011;10484;48.736;9.332;2024-03-23T09:13:46;1.77;;;1.20;;
20649;SDS011;10484;48.736;9.332;2024-03-23T09:16:11;4.53;;;1.17;;
20649;SDS011;10484;48.736;9.332;2024-03-23T09:18:37;3.00;;;1.63;;
20649;SDS011;10484;48.736;9.332;2024-03-23T09:21:03;5.17;;;1.80;;
20649;SDS011;10484;48.736;9.332;2024-03-23T09:23:35;3.80;;;2.00;;
20649;SDS011;10484;48.736;9.332;2024-03-23T09:26:04;2.83;;;1.80;;
20649;SDS011;10484;48.736;9.332;2024-03-23T09:28:30;3.47;;;2.07;;
20649;SDS011;10484;48.736;9.332;2024-03-23T09:31:01;5.77;;;1.90;;
20649;SDS011;10484;48.736;9.332;2024-03-23T09:33:28;1.93;;;1.50;;
20649;SDS011;10484;48.736;9.332;2024-03-23T09:35:54;5.70;;;2.00;;
20649;SDS011;10484;48.736;9.332;2024-03-23T09:38:21;3.03;;;1.73;;
20649;SDS011;10484;48.736;9.332;2024-03-23T09:40:48;3.30;;;2.30;;
20649;SDS011;10484;48.736;9.332;2024-03-23T09:43:18;3.50;;;2.20;;
20649;SDS011;10484;48.736;9.332;2024-03-23T09:45:44;3.63;;;2.33;;
20649;SDS011;10484;48.736;9.332;2024-03-23T09:48:10;4.13;;;1.87;;
20649;SDS011;10484;48.736;9.332;2024-03-23T09:50:39;4.13;;;2.00;;
20649;SDS011;10484;48.736;9.332;2024-03-23T09:53:06;5.63;;;2.10;;
20649;SDS011;10484;48.736;9.332;2024-03-23T09:55:32;4.13;;;2.20;;
20649;SDS011;10484;48.736;9.332;2024-03-23T09:57:57;3.43;;;1.90;;
20649;SDS011;10484;48.736;9.332;2024-03-23T10:00:24;4.03;;;1.90;;
20649;SDS011;10484;48.736;9.332;2024-03-23T10:02:50;4.73;;;2.70;;
20649;SDS011;10484;48.736;9.332;2024-03-23T10:05:22;7.93;;;2.87;;
20649;SDS011;10484;48.736;9.332;2024-03-23T10:07:51;5.50;;;2.30;;
20649;SDS011;10484;48.736;9.332;2024-03-23T10:10:17;3.93;;;2.30;;
20649;SDS011;10484;48.736;9.332;2024-03-23T10:12:47;4.00;;;2.43;;
20649;SDS011;10484;48.736;9.332;2024-03-23T10:17:48;4.30;;;2.83;;
20649;SDS011;10484;48.736;9.332;2024-03-23T10:20:18;4.50;;;3.10;;
20649;SDS011;10484;48.736;9.332;2024-03-23T10:22:45;3.50;;;2.70;;
20649;SDS011;10484;48.736;9.332;2024-03-23T10:25:11;6.20;;;2.63;;
20649;SDS011;10484;48.736;9.332;2024-03-23T10:27:38;4.10;;;3.10;;
20649;SDS011;10484;48.736;9.332;2024-03-23T10:30:11;4.70;;;2.73;;
20649;SDS011;10484;48.736;9.332;2024-03-23T10:32:41;4.77;;;2.03;;
20649;SDS011;10484;48.736;9.332;2024-03-23T10:35:14;5.07;;;2.93;;
20649;SDS011;10484;48.736;9.332;2024-03-23T10:37:41;6.07;;;2.40;;
20649;SDS011;10484;48.736;9.332;2024-03-23T10:40:08;4.60;;;2.80;;
20649;SDS011;10484;48.736;9.332;2024-03-23T10:42:36;5.07;;;3.30;;
20649;SDS011;10484;48.736;9.332;2024-03-23T10:45:03;3.67;;;2.07;;
20649;SDS011;10484;48.736;9.332;2024-03-23T10:47:29;3.80;;;2.30;;
20649;SDS011;10484;48.736;9.332;2024-03-23T10:49:56;4.77;;;2.30;;
20649;SDS011;10484;48.736;9.332;2024-03-23T10:52:21;3.90;;;2.63;;
20649;SDS011;10484;48.736;9.332;2024-03-23T10:54:47;5.40;;;2.70;;
20649;SDS011;10484;48.736;9.332;2024-03-23T10:57:17;4.60;;;2.23;;
20649;SDS011;10484;48.736;9.332;2024-03-23T10:59:45;4.67;;;2.83;;
20649;SDS011;10484;48.736;9.332;2024-03-23T11:02:20;4.40;;;2.30;;
20649;SDS011;10484;48.736;9.332;2024-03-23T11:04:46;6.53;;;2.83;;
20649;SDS011;10484;48.736;9.332;2024-03-23T11:07:31;4.97;;;2.83;;
20649;SDS011;10484;48.736;9.332;2024-03-23T11:09:59;8.27;;;3.53;;
20649;SDS011;10484;48.736;9.332;2024-03-23T11:12:26;7.57;;;4.37;;
20649;SDS011;10484;48.736;9.332;2024-03-23T11:15:34;7.57;;;3.77;;
20649;SDS011;10484;48.736;9.332;2024-03-23T11:17:41;3.60;;;2.70;;
20649;SDS011;10484;48.736;9.332;2024-03-23T11:20:06;3.37;;;1.80;;
20649;SDS011;10484;48.736;9.332;2024-03-23T11:27:41;1.60;;;1.50;;
20649;SDS011;10484;48.736;9.332;2024-03-23T11:30:12;3.47;;;1.27;;
20649;SDS011;10484;48.736;9.332;2024-03-23T11:32:38;3.43;;;1.40;;
20649;SDS011;10484;48.736;9.332;2024-03-23T11:35:04;3.33;;;1.50;;
20649;SDS011;10484;48.736;9.332;2024-03-23T11:37:31;3.50;;;1.60;;
20649;SDS011;10484;48.736;9.332;2024-03-23T11:39:56;1.87;;;1.77;;
20649;SDS011;10484;48.736;9.332;2024-03-23T11:42:22;2.17;;;1.60;;
20649;SDS011;10484;48.736;9.332;2024-03-23T11:44:47;2.90;;;1.60;;
20649;SDS011;10484;48.736;9.332;2024-03-23T11:47:13;3.93;;;1.87;;
20649;SDS011;10484;48.736;9.332;2024-03-23T11:49:38;2.27;;;1.90;;
20649;SDS011;10484;48.736;9.332;2024-03-23T11:52:06;2.90;;;1.80;;
20649;SDS011;10484;48.736;9.332;2024-03-23T11:54:32;3.70;;;1.50;;
20649;SDS011;10484;48.736;9.332;2024-03-23T11:56:58;1.60;;;1.50;;
20649;SDS011;10484;48.736;9.332;2024-03-23T11:59:40;2.40;;;1.53;;
20649;SDS011;10484;48.736;9.332;2024-03-23T12:04:36;1.70;;;1.60;;
20649;SDS011;10484;48.736;9.332;2024-03-23T12:07:15;2.40;;;1.40;;
20649;SDS011;10484;48.736;9.332;2024-03-23T12:10:21;1.80;;;1.60;;
20649;SDS011;10484;48.736;9.332;2024-03-23T12:12:43;2.13;;;1.03;;
20649;SDS011;10484;48.736;9.332;2024-03-23T12:15:09;4.90;;;1.80;;
20649;SDS011;10484;48.736;9.332;2024-03-23T12:17:37;2.70;;;1.73;;
20649;SDS011;10484;48.736;9.332;2024-03-23T12:20:03;2.83;;;1.83;;
20649;SDS011;10484;48.736;9.332;2024-03-23T12:22:29;2.40;;;1.53;;
20649;SDS011;10484;48.736;9.332;2024-03-23T12:24:55;3.73;;;1.83;;
20649;SDS011;10484;48.736;9.332;2024-03-23T12:27:21;1.93;;;1.70;;
20649;SDS011;10484;48.736;9.332;2024-03-23T12:29:47;6.70;;;1.77;;
20649;SDS011;10484;48.736;9.332;2024-03-23T12:32:13;3.07;;;1.50;;
20649;SDS011;10484;48.736;9.332;2024-03-23T12:34:40;1.50;;;1.20;;
20649;SDS011;10484;48.736;9.332;2024-03-23T12:37:06;5.77;;;2.03;;
20649;SDS011;10484;48.736;9.332;2024-03-23T12:39:33;3.37;;;2.10;;
20649;SDS011;10484;48.736;9.332;2024-03-23T12:42:00;5.00;;;1.43;;
20649;SDS011;10484;48.736;9.332;2024-03-23T12:44:27;4.23;;;1.33;;
20649;SDS011;10484;48.736;9.332;2024-03-23T12:46:53;3.63;;;1.77;;
20649;SDS011;10484;48.736;9.332;2024-03-23T12:49:19;3.90;;;1.93;;
20649;SDS011;10484;48.736;9.332;2024-03-23T12:51:46;4.20;;;1.57;;
20649;SDS011;10484;48.736;9.332;2024-03-23T12:54:19;6.13;;;1.90;;
20649;SDS011;10484;48.736;9.332;2024-03-23T12:56:45;2.70;;;1.53;;
20649;SDS011;10484;48.736;9.332;2024-03-23T12:59:11;1.70;;;1.47;;
20649;SDS011;10484;48.736;9.332;2024-03-23T13:01:38;5.93;;;1.70;;
20649;SDS011;10484;48.736;9.332;2024-03-23T13:04:03;2.23;;;1.50;;
20649;SDS011;10484;48.736;9.332;2024-03-23T13:06:29;5.67;;;1.47;;
20649;SDS011;10484;48.736;9.332;2024-03-23T13:08:59;5.23;;;1.80;;
20649;SDS011;10484;48.736;9.332;2024-03-23T13:11:26;3.70;;;1.93;;
20649;SDS011;10484;48.736;9.332;2024-03-23T13:13:51;3.43;;;2.00;;
20649;SDS011;10484;48.736;9.332;2024-03-23T13:16:17;4.63;;;2.20;;
20649;SDS011;10484;48.736;9.332;2024-03-23T13:18:43;4.77;;;1.77;;
20649;SDS011;10484;48.736;9.332;2024-03-23T13:21:08;5.83;;;1.93;;
20649;SDS011;10484;48.736;9.332;2024-03-23T13:23:34;2.73;;;1.40;;
20649;SDS011;10484;48.736;9.332;2024-03-23T13:26:00;3.30;;;1.90;;
20649;SDS011;10484;48.736;9.332;2024-03-23T13:28:26;8.23;;;2.30;;
20649;SDS011;10484;48.736;9.332;2024-03-23T13:30:52;4.20;;;2.20;;
20649;SDS011;10484;48.736;9.332;2024-03-23T13:33:19;10.70;;;3.17;;
20649;SDS011;10484;48.736;9.332;2024-03-23T13:35:54;3.80;;;2.03;;
20649;SDS011;10484;48.736;9.332;2024-03-23T13:38:21;6.00;;;2.57;;
20649;SDS011;10484;48.736;9.332;2024-03-23T13:40:53;6.37;;;2.27;;
20649;SDS011;10484;48.736;9.332;2024-03-23T13:43:19;4.30;;;2.07;;
20649;SDS011;10484;48.736;9.332;2024-03-23T13:45:48;4.40;;;2.20;;
20649;SDS011;10484;48.736;9.332;2024-03-23T13:48:16;3.50;;;1.37;;
20649;SDS011;10484;48.736;9.332;2024-03-23T13:50:43;1.90;;;0.77;;
20649;SDS011;10484;48.736;9.332;2024-03-23T13:53:08;2.60;;;1.10;;
20649;SDS011;10484;48.736;9.332;2024-03-23T13:55:34;4.50;;;1.20;;
20649;SDS011;10484;48.736;9.332;2024-03-23T13:58:00;1.97;;;1.00;;
20649;SDS011;10484;48.736;9.332;2024-03-23T14:00:26;2.40;;;0.97;;
20649;SDS011;10484;48.736;9.332;2024-03-23T14:02:52;2.07;;;0.73;;
20649;SDS011;10484;48.736;9.332;2024-03-23T14:05:17;2.80;;;0.97;;
20649;SDS011;10484;48.736;9.332;2024-03-23T14:07:43;1.93;;;0.80;;
20649;SDS011;10484;48.736;9.332;2024-03-23T14:10:08;1.27;;;0.53;;
20649;SDS011;10484;48.736;9.332;2024-03-23T14:12:38;2.13;;;0.87;;
20649;SDS011;10484;48.736;9.332;2024-03-23T14:15:06;1.67;;;0.70;;
20649;SDS011;10484;48.736;9.332;2024-03-23T14:17:32;2.10;;;0.90;;
20649;SDS011;10484;48.736;9.332;2024-03-23T14:19:58;3.30;;;1.10;;
20649;SDS011;10484;48.736;9.332;2024-03-23T14:22:26;1.80;;;1.00;;
20649;SDS011;10484;48.736;9.332;2024-03-23T14:24:52;2.97;;;1.17;;
20649;SDS011;10484;48.736;9.332;2024-03-23T14:27:18;4.17;;;1.27;;
20649;SDS011;10484;48.736;9.332;2024-03-23T14:29:45;2.77;;;1.33;;
20649;SDS011;10484;48.736;9.332;2024-03-23T14:32:12;4.53;;;1.60;;
20649;SDS011;10484;48.736;9.332;2024-03-23T14:34:37;3.07;;;1.10;;
20649;SDS011;10484;48.736;9.332;2024-03-23T14:37:03;3.60;;;1.10;;
20649;SDS011;10484;48.736;9.332;2024-03-23T14:39:30;2.07;;;0.83;;
20649;SDS011;10484;48.736;9.332;2024-03-23T14:41:56;2.47;;;1.00;;
20649;SDS011;10484;48.736;9.332;2024-03-23T14:44:22;5.63;;;1.17;;
20649;SDS011;10484;48.736;9.332;2024-03-23T14:46:47;2.30;;;0.90;;
20649;SDS011;10484;48.736;9.332;2024-03-23T14:49:14;1.20;;;0.50;;
20649;SDS011;10484;48.736;9.332;2024-03-23T14:51:43;1.80;;;0.63;;
20649;SDS011;10484;48.736;9.332;2024-03-23T14:54:08;0.83;;;0.50;;
20649;SDS011;10484;48.736;9.332;2024-03-23T14:56:35;0.87;;;0.50;;
20649;SDS011;10484;48.736;9.332;2024-03-23T14:59:00;1.27;;;0.70;;
20649;SDS011;10484;48.736;9.332;2024-03-23T15:01:26;1.47;;;0.80;;
20649;SDS011;10484;48.736;9.332;2024-03-23T15:03:51;1.27;;;0.73;;
20649;SDS011;10484;48.736;9.332;2024-03-23T15:06:18;2.97;;;1.00;;
20649;SDS011;10484;48.736;9.332;2024-03-23T15:08:44;2.57;;;0.90;;
20649;SDS011;10484;48.736;9.332;2024-03-23T15:11:10;1.77;;;0.60;;
20649;SDS011;10484;48.736;9.332;2024-03-23T15:13:36;2.23;;;0.60;;
20649;SDS011;10484;48.736;9.332;2024-03-23T15:16:03;2.70;;;0.80;;
20649;SDS011;10484;48.736;9.332;2024-03-23T15:18:30;1.83;;;0.57;;
20649;SDS011;10484;48.736;9.332;2024-03-23T15:21:00;2.63;;;0.60;;
20649;SDS011;10484;48.736;9.332;2024-03-23T15:23:27;1.77;;;0.60;;
20649;SDS011;10484;48.736;9.332;2024-03-23T15:25:57;1.90;;;0.60;;
20649;SDS011;10484;48.736;9.332;2024-03-23T15:28:24;1.20;;;0.70;;
20649;SDS011;10484;48.736;9.332;2024-03-23T15:31:03;3.23;;;1.20;;
20649;SDS011;10484;48.736;9.332;2024-03-23T15:33:29;1.77;;;1.00;;
20649;SDS011;10484;48.736;9.332;2024-03-23T15:35:58;2.07;;;0.90;;
20649;SDS011;10484;48.736;9.332;2024-03-23T15:38:24;1.07;;;0.70;;
20649;SDS011;10484;48.736;9.332;2024-03-23T15:40:52;4.20;;;1.40;;
20649;SDS011;10484;48.736;9.332;2024-03-23T15:43:18;3.27;;;1.13;;
20649;SDS011;10484;48.736;9.332;2024-03-23T15:45:44;1.03;;;0.77;;
20649;SDS011;10484;48.736;9.332;2024-03-23T15:48:18;2.83;;;1.00;;